Time;durP1;ratioP1;P1;durP2;ratioP2;P2;SDS_P1;SDS_P2;PMS_P1;PMS_P2;Temp;Humidity;BMP_temperature;BMP_pressure;BME280_temperature;BME280_humidity;BME280_pressure;Samples;Min_cycle;Max_cycle;Signal;HPM_P1;HPM_P2
2022/01/30 00:00:56;;;;;;;5.28;3.60;;;;;;;8.12;74.10;98150.75;4945276;28;20288;-83
2022/01/30 00:03:21;;;;;;;4.60;3.38;;;;;;;8.29;73.06;98151.09;4931856;28;20330;-83
2022/01/30 00:05:47;;;;;;;4.30;2.92;;;;;;;8.24;73.80;98154.28;4944157;28;20350;-82
2022/01/30 00:08:12;;;;;;;3.83;2.78;;;;;;;8.26;73.90;98147.13;4964334;28;20216;-82
2022/01/30 00:10:40;;;;;;;4.15;2.80;;;;;;;8.38;73.14;98161.06;4929802;28;20204;-83
2022/01/30 00:13:08;;;;;;;4.63;3.05;;;;;;;8.29;73.37;98164.84;4963887;28;20181;-84
2022/01/30 00:15:55;;;;;;;5.25;3.10;;;;;;;8.33;73.84;98154.84;4925180;28;20363;-83
2022/01/30 00:23:31;;;;;;;6.82;3.83;;;;;;;8.24;73.96;98134.34;4958003;28;20631;-84
2022/01/30 00:25:57;;;;;;;8.15;4.60;;;;;;;8.26;74.15;98134.16;4927823;28;20214;-83
2022/01/30 00:28:25;;;;;;;7.15;4.38;;;;;;;8.39;73.45;98131.47;4928361;28;20239;-83
2022/01/30 00:30:51;;;;;;;7.47;4.95;;;;;;;8.41;73.24;98134.69;4928642;28;20268;-84
2022/01/30 00:33:17;;;;;;;8.25;4.55;;;;;;;8.43;73.64;98137.91;4948087;28;20571;-85
2022/01/30 00:35:42;;;;;;;8.40;4.97;;;;;;;8.46;73.76;98138.50;4929115;28;20201;-84
2022/01/30 00:38:11;;;;;;;7.82;4.97;;;;;;;8.47;72.98;98145.28;4930392;28;20205;-84
2022/01/30 00:40:38;;;;;;;6.75;4.65;;;;;;;8.59;73.04;98146.22;4936579;28;20301;-84
2022/01/30 00:43:20;;;;;;;6.97;4.90;;;;;;;8.56;72.46;98141.44;4916313;28;20261;-84
2022/01/30 00:45:47;;;;;;;8.27;5.72;;;;;;;8.55;73.36;98140.66;4932675;28;20169;-84
2022/01/30 00:48:12;;;;;;;7.10;5.15;;;;;;;8.66;73.37;98146.97;4932154;28;20179;-85
2022/01/30 00:50:38;;;;;;;7.00;4.68;;;;;;;8.68;72.99;98154.56;4939931;28;20192;-84
2022/01/30 00:53:04;;;;;;;8.25;5.05;;;;;;;8.57;72.81;98153.44;4921109;28;20212;-84
2022/01/30 00:55:30;;;;;;;8.93;5.85;;;;;;;8.56;73.54;98146.63;4934904;28;20782;-84
2022/01/30 00:57:56;;;;;;;7.93;5.30;;;;;;;8.51;73.25;98149.03;4920646;28;20330;-83
2022/01/30 01:00:26;;;;;;;7.55;5.47;;;;;;;8.44;73.40;98144.66;4935777;28;20662;-84
2022/01/30 01:02:51;;;;;;;7.43;4.80;;;;;;;8.70;73.08;98150.75;4965253;28;20603;-84
2022/01/30 01:05:17;;;;;;;8.25;5.55;;;;;;;8.68;73.24;98137.19;4937992;28;20212;-84
2022/01/30 01:07:46;;;;;;;10.45;5.75;;;;;;;8.70;73.23;98139.56;4938689;28;20277;-84
2022/01/30 01:25:47;;;;;;;12.30;6.00;;;;;;;8.79;72.21;98152.09;4964644;28;20757;-84
2022/01/30 01:28:12;;;;;;;9.80;6.20;;;;;;;8.62;73.33;98161.38;4935906;28;20268;-83
2022/01/30 01:30:38;;;;;;;9.15;5.60;;;;;;;8.67;72.99;98158.16;4953775;28;20523;-84
2022/01/30 01:33:04;;;;;;;9.30;5.88;;;;;;;8.64;72.91;98154.19;4938633;28;20204;-83
2022/01/30 01:35:29;;;;;;;10.52;6.28;;;;;;;8.74;72.92;98170.13;4970402;28;20312;-83
2022/01/30 01:37:55;;;;;;;32.38;8.10;;;;;;;8.74;73.06;98162.31;4938109;28;20379;-83
2022/01/30 01:40:21;;;;;;;12.25;6.43;;;;;;;8.87;72.61;98171.81;4938364;28;20294;-83
2022/01/30 01:42:47;;;;;;;14.05;7.32;;;;;;;8.81;72.02;98170.88;4954980;28;20264;-83
2022/01/30 01:45:18;;;;;;;9.02;5.95;;;;;;;8.83;72.38;98182.84;4938934;28;20342;-83
2022/01/30 01:47:44;;;;;;;17.45;7.63;;;;;;;8.81;72.42;98167.47;4938479;28;20583;-83
2022/01/30 01:50:16;;;;;;;8.93;5.97;;;;;;;8.77;72.18;98172.31;4958933;28;20290;-83
2022/01/30 01:52:42;;;;;;;8.43;5.78;;;;;;;8.80;72.28;98168.47;4954956;28;20215;-83
2022/01/30 01:55:07;;;;;;;10.23;6.35;;;;;;;8.84;71.95;98176.66;4970477;28;20274;-83
2022/01/30 01:57:33;;;;;;;9.63;6.55;;;;;;;8.81;72.17;98175.28;4937422;28;20654;-83
2022/01/30 01:59:59;;;;;;;10.23;6.07;;;;;;;8.81;72.11;98172.69;4968919;28;20688;-83
2022/01/30 02:02:25;;;;;;;13.35;6.70;;;;;;;8.76;72.60;98170.69;4952917;28;20200;-83
2022/01/30 02:04:51;;;;;;;29.25;7.93;;;;;;;8.79;72.65;98175.47;4967675;28;20556;-82
2022/01/30 02:09:45;;;;;;;12.27;6.78;;;;;;;8.83;72.98;98177.66;4970225;28;20168;-83
2022/01/30 02:12:17;;;;;;;12.85;6.57;;;;;;;8.83;72.58;98175.06;4953822;28;20204;-83
2022/01/30 02:14:53;;;;;;;11.00;6.03;;;;;;;8.79;72.25;98169.47;4953677;28;20102;-83
2022/01/30 02:27:58;;;;;;;14.75;6.60;;;;;;;8.61;71.32;98168.34;4966945;28;20372;-83
2022/01/30 02:30:28;;;;;;;9.60;4.95;;;;;;;8.57;72.74;98169.00;4950170;28;20196;-83
2022/01/30 02:32:55;;;;;;;12.05;5.07;;;;;;;8.57;72.86;98163.81;4925017;28;20195;-82
2022/01/30 02:35:20;;;;;;;11.32;5.30;;;;;;;8.41;72.45;98162.44;4953745;28;20230;-83
2022/01/30 02:37:47;;;;;;;11.63;4.53;;;;;;;8.41;72.76;98159.81;4950538;28;20208;-83
2022/01/30 02:40:13;;;;;;;15.77;4.38;;;;;;;8.42;72.93;98162.25;4953314;28;20102;-83
2022/01/30 02:42:44;;;;;;;14.45;4.75;;;;;;;8.39;71.75;98161.84;4954484;28;20537;-82
2022/01/30 02:45:12;;;;;;;8.52;3.58;;;;;;;8.24;72.57;98160.31;4953973;28;20199;-82
2022/01/30 02:47:51;;;;;;;11.45;3.63;;;;;;;8.33;72.50;98165.25;4952908;28;20264;-84
2022/01/30 02:50:31;;;;;;;11.30;4.80;;;;;;;8.35;72.34;98165.84;4954027;28;20282;-82
2022/01/30 02:52:57;;;;;;;13.13;4.18;;;;;;;8.24;71.68;98164.69;4956269;28;20153;-82
2022/01/30 02:55:23;;;;;;;13.48;3.78;;;;;;;8.10;72.04;98165.72;4968847;28;20503;-82
2022/01/30 02:57:49;;;;;;;13.57;4.93;;;;;;;8.13;72.08;98158.31;4951710;28;20115;-82
2022/01/30 03:00:14;;;;;;;11.57;3.72;;;;;;;7.99;72.16;98160.16;4987428;28;20033;-82
2022/01/30 03:02:40;;;;;;;11.35;3.30;;;;;;;7.99;72.47;98167.94;4970945;28;20656;-82
2022/01/30 03:05:05;;;;;;;8.73;3.47;;;;;;;7.91;72.04;98160.38;4949283;28;20229;-82
2022/01/30 03:07:31;;;;;;;14.25;4.22;;;;;;;7.90;72.22;98158.78;4952040;28;20200;-82
2022/01/30 03:09:56;;;;;;;9.23;3.25;;;;;;;7.86;72.31;98173.97;4949105;28;20205;-82
2022/01/30 03:12:21;;;;;;;12.25;3.58;;;;;;;7.84;71.72;98164.78;4949114;28;20612;-82
2022/01/30 03:14:47;;;;;;;11.93;4.53;;;;;;;7.77;72.01;98169.97;4952020;28;20188;-82
2022/01/30 03:17:12;;;;;;;11.25;3.10;;;;;;;7.68;72.18;98171.19;4934907;28;20208;-82
2022/01/30 03:19:38;;;;;;;11.20;4.00;;;;;;;7.61;71.85;98176.38;4961447;28;20245;-82
2022/01/30 03:22:03;;;;;;;9.82;3.70;;;;;;;7.45;72.12;98179.34;4951842;28;20204;-82
2022/01/30 03:24:36;;;;;;;12.00;3.20;;;;;;;7.40;72.49;98179.16;4951561;28;20197;-82
2022/01/30 03:27:02;;;;;;;8.45;3.20;;;;;;;7.36;72.29;98190.91;4934831;28;20687;-82
2022/01/30 03:29:27;;;;;;;9.73;3.08;;;;;;;7.30;72.24;98201.06;4967409;28;20246;-82
2022/01/30 03:31:53;;;;;;;9.98;3.03;;;;;;;7.28;72.32;98210.84;4933331;28;20803;-82
2022/01/30 03:34:18;;;;;;;17.40;4.22;;;;;;;7.27;73.27;98213.63;4968328;28;20343;-82
2022/01/30 03:36:43;;;;;;;10.32;3.45;;;;;;;7.43;72.89;98222.81;4935056;28;20806;-82
2022/01/30 03:39:09;;;;;;;15.20;4.07;;;;;;;7.50;73.25;98211.47;4967624;28;20180;-83
2022/01/30 03:41:34;;;;;;;14.93;4.10;;;;;;;7.60;73.03;98221.41;4952121;28;20278;-82
2022/01/30 03:44:00;;;;;;;15.98;4.20;;;;;;;7.73;73.04;98225.00;4947499;28;20216;-82
2022/01/30 03:46:25;;;;;;;14.30;4.45;;;;;;;7.76;73.05;98219.41;4952537;28;20525;-82
2022/01/30 03:48:50;;;;;;;19.42;4.75;;;;;;;7.78;72.26;98231.19;4935425;28;20700;-82
2022/01/30 03:51:16;;;;;;;16.73;4.00;;;;;;;7.83;72.27;98225.41;4952403;28;20370;-82
2022/01/30 03:53:41;;;;;;;10.38;3.65;;;;;;;7.75;72.35;98231.59;4949028;28;20287;-82
2022/01/30 03:56:07;;;;;;;14.27;3.95;;;;;;;7.77;73.01;98234.00;4933414;28;20611;-82
2022/01/30 03:58:33;;;;;;;16.27;3.85;;;;;;;7.79;72.91;98237.19;4935476;28;20278;-82
2022/01/30 04:00:59;;;;;;;16.67;4.60;;;;;;;7.94;72.20;98237.75;4967649;28;20195;-82
2022/01/30 04:03:24;;;;;;;12.70;4.18;;;;;;;7.89;72.25;98229.78;4912561;28;20662;-83
2022/01/30 04:05:50;;;;;;;15.55;4.70;;;;;;;7.95;71.98;98244.56;4969527;28;20267;-83
2022/01/30 04:08:16;;;;;;;18.27;4.47;;;;;;;8.00;72.39;98247.34;4936876;28;20164;-83
2022/01/30 04:10:43;;;;;;;19.23;3.97;;;;;;;8.02;72.00;98252.31;4967691;28;20649;-82
2022/01/30 04:13:09;;;;;;;17.88;4.53;;;;;;;7.98;71.60;98257.09;4934973;28;20361;-83
2022/01/30 04:15:34;;;;;;;11.48;3.72;;;;;;;7.94;71.82;98253.31;4967953;28;20196;-83
2022/01/30 04:18:01;;;;;;;12.98;4.10;;;;;;;7.87;71.95;98247.34;4952052;28;20103;-83
2022/01/30 04:20:28;;;;;;;13.65;3.72;;;;;;;7.86;71.58;98245.75;4951900;28;20375;-83
2022/01/30 04:22:53;;;;;;;13.05;3.45;;;;;;;7.95;71.58;98260.13;4951636;28;20204;-83
2022/01/30 04:25:18;;;;;;;14.23;3.50;;;;;;;7.91;71.23;98255.53;4969987;28;20219;-82
2022/01/30 04:27:44;;;;;;;12.15;4.05;;;;;;;7.93;71.46;98256.91;4934509;28;20370;-83
2022/01/30 04:30:11;;;;;;;8.68;3.72;;;;;;;7.81;71.19;98248.94;4939815;28;20642;-84
2022/01/30 04:32:41;;;;;;;11.40;2.88;;;;;;;7.59;70.76;98261.31;4955989;28;20229;-84
2022/01/30 04:35:12;;;;;;;13.07;5.30;;;;;;;7.67;70.62;98253.31;4948081;28;20312;-84
2022/01/30 04:37:56;;;;;;;11.75;3.47;;;;;;;7.55;70.08;98249.72;4971888;28;20256;-85
2022/01/30 04:59:08;;;;;;;11.30;3.70;;;;;;;7.53;68.80;98251.72;4971714;28;20709;-83
2022/01/30 05:04:28;;;;;;;9.63;2.80;;;;;;;7.50;67.91;98265.06;4970849;28;20247;-85
2022/01/30 05:09:19;;;;;;;11.10;2.85;;;;;;;7.41;68.12;98268.84;4953841;28;20235;-83
2022/01/30 05:11:44;;;;;;;9.73;2.95;;;;;;;7.17;67.84;98267.59;4921724;28;20211;-84
2022/01/30 05:14:10;;;;;;;9.07;2.97;;;;;;;7.21;68.40;98277.34;4954164;28;20250;-85
2022/01/30 05:16:38;;;;;;;9.30;3.20;;;;;;;7.22;68.02;98276.38;4936063;28;20248;-85
2022/01/30 05:19:03;;;;;;;11.57;3.08;;;;;;;7.13;67.95;98272.38;4919814;28;20658;-85
2022/01/30 05:21:29;;;;;;;12.32;3.40;;;;;;;7.16;67.87;98266.78;4970529;28;20290;-84
2022/01/30 05:23:55;;;;;;;7.72;2.90;;;;;;;7.06;67.13;98274.13;4970483;28;20537;-85
2022/01/30 05:26:24;;;;;;;10.27;3.60;;;;;;;7.05;67.14;98270.72;4955236;28;20208;-85
2022/01/30 05:28:49;;;;;;;10.10;2.63;;;;;;;7.08;66.57;98279.91;4954443;28;20204;-83
2022/01/30 05:31:15;;;;;;;8.48;2.38;;;;;;;6.87;67.50;98281.63;4970177;28;20196;-85
2022/01/30 05:33:40;;;;;;;7.20;2.03;;;;;;;7.05;67.17;98275.13;4971271;28;20239;-83
2022/01/30 05:36:07;;;;;;;6.93;2.47;;;;;;;7.11;66.07;98285.50;4953822;28;20282;-83
2022/01/30 05:38:32;;;;;;;9.05;2.65;;;;;;;7.02;66.17;98283.28;4954206;28;20275;-84
2022/01/30 05:40:58;;;;;;;10.80;2.92;;;;;;;6.96;66.01;98292.63;4937327;28;20300;-84
2022/01/30 05:43:27;;;;;;;8.40;3.22;;;;;;;7.03;67.53;98287.47;4937798;28;20161;-83
2022/01/30 05:46:00;;;;;;;8.15;2.03;;;;;;;6.93;66.92;98288.59;4954896;28;20830;-84
2022/01/30 05:48:26;;;;;;;8.90;2.38;;;;;;;6.97;65.92;98283.06;4953359;28;20184;-83
2022/01/30 05:50:51;;;;;;;5.90;2.33;;;;;;;6.92;65.90;98297.38;4936473;28;20211;-84
2022/01/30 05:53:16;;;;;;;8.48;2.72;;;;;;;6.96;65.75;98290.03;4969723;28;20275;-83
2022/01/30 05:55:42;;;;;;;11.45;4.53;;;;;;;6.92;65.81;98297.38;4934037;28;20290;-84
2022/01/30 05:58:10;;;;;;;9.85;2.53;;;;;;;6.72;66.44;98302.47;4944315;28;20282;-84
2022/01/30 06:00:35;;;;;;;9.18;2.42;;;;;;;6.82;65.48;98296.94;4952522;28;20624;-84
2022/01/30 06:03:01;;;;;;;7.53;2.10;;;;;;;6.84;64.62;98300.13;4968666;28;20392;-83
2022/01/30 06:05:26;;;;;;;4.63;1.95;;;;;;;6.77;64.88;98304.47;4968239;28;20289;-83
2022/01/30 06:07:54;;;;;;;13.02;3.00;;;;;;;6.74;64.61;98304.84;4952663;28;20164;-83
2022/01/30 06:10:21;;;;;;;7.68;2.10;;;;;;;6.56;64.90;98318.28;4935586;28;20200;-84
2022/01/30 06:12:47;;;;;;;8.13;2.42;;;;;;;6.70;66.14;98329.50;4933203;28;20170;-83
2022/01/30 06:15:13;;;;;;;10.10;2.42;;;;;;;6.81;67.28;98339.34;4969188;28;20327;-84
2022/01/30 06:17:40;;;;;;;5.10;2.20;;;;;;;6.73;64.61;98339.47;4936449;28;20189;-85
2022/01/30 06:20:06;;;;;;;9.02;1.70;;;;;;;6.72;63.84;98343.09;4952267;28;20200;-83
2022/01/30 06:22:31;;;;;;;9.30;2.08;;;;;;;6.71;63.41;98346.66;4965649;28;20219;-84
2022/01/30 06:24:57;;;;;;;8.07;2.58;;;;;;;6.88;66.11;98353.13;4952742;28;20664;-83
2022/01/30 06:27:22;;;;;;;5.82;2.08;;;;;;;6.86;64.57;98364.66;4936282;28;20630;-83
2022/01/30 06:29:47;;;;;;;9.15;2.92;;;;;;;6.83;65.14;98352.09;4970960;28;20189;-84
2022/01/30 06:32:15;;;;;;;5.25;1.60;;;;;;;6.81;66.58;98357.47;4921377;28;20200;-83
2022/01/30 06:34:41;;;;;;;7.85;2.13;;;;;;;6.78;66.61;98360.41;4937502;28;20285;-84
2022/01/30 06:37:09;;;;;;;7.00;2.83;;;;;;;6.60;67.08;98349.75;4916815;28;20240;-83
2022/01/30 06:39:34;;;;;;;5.70;2.58;;;;;;;6.59;67.88;98358.53;4936391;28;20179;-83
2022/01/30 06:42:00;;;;;;;8.18;1.92;;;;;;;6.51;68.28;98367.22;4962365;28;20642;-84
2022/01/30 06:44:25;;;;;;;7.97;2.83;;;;;;;6.51;68.24;98373.19;4933269;28;20255;-83
2022/01/30 06:46:51;;;;;;;8.73;2.55;;;;;;;6.41;68.86;98377.09;4947232;28;20778;-84
2022/01/30 06:49:16;;;;;;;12.18;2.03;;;;;;;6.38;69.01;98386.03;4937112;28;20540;-83
2022/01/30 06:51:41;;;;;;;5.85;1.83;;;;;;;6.44;69.30;98387.84;4937770;28;20623;-84
2022/01/30 06:54:07;;;;;;;6.93;2.10;;;;;;;6.39;69.11;98390.19;4948368;28;20171;-84
2022/01/30 06:56:38;;;;;;;10.25;2.97;;;;;;;6.31;67.64;98393.75;4937115;28;20331;-84
2022/01/30 06:59:03;;;;;;;8.07;2.40;;;;;;;6.34;68.36;98387.38;4936654;28;20204;-84
2022/01/30 07:01:29;;;;;;;7.60;1.88;;;;;;;6.42;67.96;98395.00;4963575;28;20157;-83
2022/01/30 07:03:54;;;;;;;11.85;2.85;;;;;;;6.44;68.63;98382.69;4954226;28;20271;-84
2022/01/30 07:06:19;;;;;;;9.52;2.38;;;;;;;6.48;68.79;98381.34;4935653;28;20267;-84
2022/01/30 07:08:45;;;;;;;9.43;2.97;;;;;;;6.40;67.30;98397.00;4951095;28;20202;-84
2022/01/30 07:11:11;;;;;;;11.90;2.88;;;;;;;6.50;67.78;98402.66;4947417;28;20216;-84
2022/01/30 07:13:36;;;;;;;8.60;2.38;;;;;;;6.36;67.50;98400.94;4968685;28;20634;-84
2022/01/30 07:16:01;;;;;;;10.65;2.55;;;;;;;6.37;66.58;98402.53;4936138;28;20338;-84
2022/01/30 07:18:27;;;;;;;11.70;2.47;;;;;;;6.40;67.85;98420.28;4934055;28;20177;-84
2022/01/30 07:20:52;;;;;;;7.82;2.78;;;;;;;6.36;66.73;98416.47;4935739;28;20219;-84
2022/01/30 07:23:17;;;;;;;11.20;2.40;;;;;;;6.26;66.96;98405.63;4951252;28;20647;-83
2022/01/30 07:25:44;;;;;;;10.90;2.60;;;;;;;6.29;66.58;98425.94;4935585;28;20264;-84
2022/01/30 07:28:09;;;;;;;8.57;2.60;;;;;;;6.20;65.45;98412.31;4936238;28;20161;-83
2022/01/30 07:30:36;;;;;;;7.40;2.80;;;;;;;6.30;65.93;98427.53;4943602;28;20682;-83
2022/01/30 07:33:02;;;;;;;11.18;3.75;;;;;;;6.31;66.56;98414.44;4935864;28;20200;-83
2022/01/30 07:35:28;;;;;;;11.23;2.70;;;;;;;6.40;66.31;98417.69;4935947;28;20267;-83
2022/01/30 07:37:53;;;;;;;8.23;2.35;;;;;;;6.43;66.81;98425.06;4951386;28;20286;-83
2022/01/30 07:40:19;;;;;;;9.00;2.10;;;;;;;6.43;67.10;98422.50;4966648;28;20308;-83
2022/01/30 07:42:44;;;;;;;6.05;2.10;;;;;;;6.44;67.19;98431.84;4950843;28;20676;-83
2022/01/30 07:45:10;;;;;;;13.30;2.47;;;;;;;6.42;67.72;98433.81;4918209;28;20663;-83
2022/01/30 07:47:35;;;;;;;10.02;2.10;;;;;;;6.49;67.17;98441.63;4967157;28;20250;-83
2022/01/30 07:50:01;;;;;;;7.70;2.28;;;;;;;6.50;67.59;98445.84;4967980;28;20165;-83
2022/01/30 07:52:26;;;;;;;10.00;3.22;;;;;;;6.42;67.47;98438.19;4933986;28;20646;-83
2022/01/30 07:54:51;;;;;;;7.90;3.15;;;;;;;6.40;67.77;98443.56;4950411;28;20325;-83
2022/01/30 07:57:17;;;;;;;9.90;2.33;;;;;;;6.42;67.77;98441.56;4950073;28;20173;-83
2022/01/30 07:59:43;;;;;;;9.18;2.67;;;;;;;6.56;67.84;98458.00;4948081;28;20681;-83
2022/01/30 08:02:08;;;;;;;8.65;2.53;;;;;;;6.55;67.61;98446.88;4938551;28;20571;-83
2022/01/30 08:04:35;;;;;;;11.02;2.40;;;;;;;6.51;66.72;98461.19;4949765;28;20219;-83
2022/01/30 08:07:01;;;;;;;8.98;3.40;;;;;;;6.61;66.59;98463.44;4950023;28;20245;-83
2022/01/30 08:09:26;;;;;;;10.65;4.65;;;;;;;6.64;66.40;98451.91;4949591;28;20329;-83
2022/01/30 08:11:52;;;;;;;15.52;3.60;;;;;;;6.72;66.58;98462.13;4930648;28;20292;-84
2022/01/30 08:14:17;;;;;;;10.35;2.92;;;;;;;6.78;66.23;98465.75;4930073;28;20203;-84
2022/01/30 08:16:43;;;;;;;8.50;2.67;;;;;;;6.75;66.22;98459.97;4917080;28;20262;-84
2022/01/30 08:19:08;;;;;;;9.50;2.60;;;;;;;6.89;66.52;98473.03;4933522;28;20833;-84
2022/01/30 08:21:33;;;;;;;9.85;2.50;;;;;;;6.84;66.29;98465.03;4949814;28;20389;-83
2022/01/30 08:23:59;;;;;;;9.65;2.45;;;;;;;6.75;66.90;98462.56;4933852;28;20252;-84
2022/01/30 08:26:24;;;;;;;8.80;2.25;;;;;;;6.88;66.27;98471.41;4951160;28;20242;-84
2022/01/30 08:28:50;;;;;;;10.07;3.05;;;;;;;6.88;66.12;98468.81;4951511;28;20274;-84
2022/01/30 08:31:15;;;;;;;9.13;2.58;;;;;;;6.81;63.41;98471.34;4932658;28;20159;-84
2022/01/30 08:33:40;;;;;;;15.85;2.97;;;;;;;6.94;65.72;98475.84;4966334;28;20650;-84
2022/01/30 08:36:06;;;;;;;7.07;2.38;;;;;;;7.01;65.51;98487.06;4949777;28;20592;-84
2022/01/30 08:38:31;;;;;;;10.95;2.13;;;;;;;7.00;64.93;98487.22;4966165;28;20283;-84
2022/01/30 08:40:57;;;;;;;14.25;2.53;;;;;;;7.06;66.40;98491.63;4934215;28;20260;-84
2022/01/30 08:43:22;;;;;;;7.45;1.90;;;;;;;7.05;67.13;98482.28;4934510;28;20246;-84
2022/01/30 08:45:50;;;;;;;7.72;2.53;;;;;;;6.98;66.94;98468.50;4951404;28;20293;-84
2022/01/30 08:48:15;;;;;;;11.02;2.50;;;;;;;7.23;66.81;98495.56;4967199;28;20195;-84
2022/01/30 08:50:41;;;;;;;8.90;2.50;;;;;;;7.23;66.98;98480.03;4949973;28;20683;-84
2022/01/30 08:53:06;;;;;;;7.85;2.45;;;;;;;7.26;66.26;98495.16;4967358;28;20189;-83
2022/01/30 08:55:33;;;;;;;9.93;2.72;;;;;;;7.24;67.21;98491.97;4949414;28;20141;-84
2022/01/30 08:57:59;;;;;;;9.13;2.63;;;;;;;7.34;67.17;98496.03;4938699;28;20278;-84
2022/01/30 09:00:24;;;;;;;6.05;2.17;;;;;;;7.27;66.58;98489.00;4933847;28;20204;-84
2022/01/30 09:02:50;;;;;;;10.95;2.08;;;;;;;7.39;67.17;98491.06;4932930;28;20177;-84
2022/01/30 09:05:16;;;;;;;12.23;3.03;;;;;;;7.43;66.62;98494.88;4932752;28;20369;-83
2022/01/30 09:07:41;;;;;;;8.25;2.38;;;;;;;7.41;66.55;98495.06;4943654;28;20584;-84
2022/01/30 09:10:09;;;;;;;8.82;2.47;;;;;;;7.42;65.72;98488.06;4933081;28;20315;-84
2022/01/30 09:12:34;;;;;;;6.68;2.72;;;;;;;7.40;64.67;98495.25;4953136;28;20252;-84
2022/01/30 09:15:04;;;;;;;10.88;3.15;;;;;;;7.30;64.92;98485.25;4969405;28;20199;-84
2022/01/30 09:17:29;;;;;;;7.75;2.10;;;;;;;7.53;64.66;98500.50;4962802;28;20303;-84
2022/01/30 09:19:55;;;;;;;9.80;2.53;;;;;;;7.51;64.47;98499.91;4928131;28;20285;-84
2022/01/30 09:22:20;;;;;;;10.80;2.50;;;;;;;7.56;64.12;98505.31;4938044;28;20639;-84
2022/01/30 09:24:47;;;;;;;8.77;2.25;;;;;;;7.62;64.19;98501.94;4955478;28;20779;-84
2022/01/30 09:27:13;;;;;;;8.77;2.63;;;;;;;7.52;62.75;98483.34;4922359;28;20477;-84
2022/01/30 09:29:39;;;;;;;8.80;2.20;;;;;;;7.56;63.20;98489.75;4970532;28;20212;-84
2022/01/30 09:32:06;;;;;;;9.88;2.10;;;;;;;7.53;63.30;98489.34;4971672;28;20184;-85
2022/01/30 09:34:31;;;;;;;11.52;2.03;;;;;;;7.55;63.63;98493.34;4928412;28;20262;-84
2022/01/30 09:36:57;;;;;;;10.13;2.42;;;;;;;7.57;63.24;98491.34;4921581;28;20365;-85
2022/01/30 09:39:23;;;;;;;10.32;2.33;;;;;;;7.65;64.43;98493.78;4970690;28;20204;-84
2022/01/30 09:41:51;;;;;;;9.32;2.25;;;;;;;7.60;62.55;98497.94;4937480;28;20223;-85
2022/01/30 09:44:17;;;;;;;8.20;2.67;;;;;;;7.70;63.20;98495.81;4936850;28;20343;-85
2022/01/30 09:46:43;;;;;;;7.07;2.47;;;;;;;7.64;63.75;98489.59;4954049;28;20188;-84
2022/01/30 09:49:09;;;;;;;10.13;3.08;;;;;;;7.58;62.08;98487.78;4936750;28;20819;-85
2022/01/30 09:51:36;;;;;;;7.28;1.92;;;;;;;7.57;61.88;98485.38;4974799;28;20624;-85
2022/01/30 09:54:02;;;;;;;9.13;2.03;;;;;;;7.64;62.58;98475.81;4920435;28;20217;-84
2022/01/30 09:56:27;;;;;;;12.88;3.08;;;;;;;7.71;62.45;98473.25;4953486;28;20559;-85
2022/01/30 09:58:53;;;;;;;9.18;2.58;;;;;;;7.76;61.81;98487.28;4952316;28;20185;-84
2022/01/30 10:01:18;;;;;;;8.00;1.50;;;;;;;7.49;61.00;98479.34;4951363;28;20698;-85
2022/01/30 10:03:47;;;;;;;9.77;2.22;;;;;;;7.65;60.26;98486.00;4937484;28;20297;-84
2022/01/30 10:06:16;;;;;;;7.75;1.88;;;;;;;7.74;60.67;98485.84;4953241;28;20192;-84
2022/01/30 10:08:44;;;;;;;7.57;1.73;;;;;;;7.78;59.91;98508.63;4935189;28;20221;-85
2022/01/30 10:11:29;;;;;;;14.88;2.60;;;;;;;7.60;59.99;98490.97;4934613;28;20282;-84
2022/01/30 10:14:14;;;;;;;13.18;2.63;;;;;;;7.38;59.73;98495.44;4966680;28;20346;-85
2022/01/30 10:16:42;;;;;;;5.97;1.75;;;;;;;7.27;57.88;98491.59;4949020;28;20226;-86
2022/01/30 10:19:34;;;;;;;6.40;2.55;;;;;;;7.50;58.89;98493.09;4952378;28;20219;-85
2022/01/30 10:22:08;;;;;;;10.02;2.50;;;;;;;7.69;58.31;98487.25;4931674;28;20238;-85
2022/01/30 10:24:38;;;;;;;6.75;2.25;;;;;;;7.97;58.33;98483.75;4952978;28;20159;-85
2022/01/30 10:27:21;;;;;;;9.05;1.98;;;;;;;7.95;60.42;98471.94;4952983;28;20702;-84
2022/01/30 10:29:59;;;;;;;11.60;2.50;;;;;;;8.15;58.91;98467.63;4951441;28;20693;-85
2022/01/30 10:32:26;;;;;;;9.00;2.88;;;;;;;8.33;57.89;98463.66;4934307;28;20173;-85
2022/01/30 10:35:06;;;;;;;9.02;2.25;;;;;;;8.25;57.50;98465.44;4936539;28;20217;-85
2022/01/30 10:37:32;;;;;;;8.02;1.80;;;;;;;8.12;60.29;98469.81;4935971;28;20689;-85
2022/01/30 10:40:02;;;;;;;8.48;1.73;;;;;;;8.26;57.61;98463.66;4936340;28;20103;-85
2022/01/30 10:42:40;;;;;;;7.80;2.38;;;;;;;8.00;57.77;98464.38;4952300;28;20226;-85
2022/01/30 10:45:25;;;;;;;10.77;3.15;;;;;;;7.77;56.53;98462.13;4952350;28;20185;-85
2022/01/30 10:47:51;;;;;;;;;;;;;;;7.32;56.99;98472.91;4949203;28;20243;-85
2022/01/30 10:50:19;;;;;;;8.82;2.25;;;;;;;7.56;57.20;98458.66;4953754;28;20504;-85
2022/01/30 10:52:59;;;;;;;10.18;1.98;;;;;;;7.65;58.26;98460.09;4921545;28;20204;-85
2022/01/30 10:55:36;;;;;;;6.18;1.42;;;;;;;7.56;56.58;98473.41;4917902;28;20243;-85
2022/01/30 10:58:03;;;;;;;6.10;1.40;;;;;;;7.74;57.53;98459.94;4951557;28;20241;-84
2022/01/30 11:00:36;;;;;;;6.60;1.80;;;;;;;7.74;56.45;98454.75;4934592;28;20634;-84
2022/01/30 11:03:01;;;;;;;4.10;1.27;;;;;;;7.84;55.95;98455.16;4942123;28;20192;-85
2022/01/30 11:05:26;;;;;;;6.53;1.38;;;;;;;7.72;55.73;98452.34;4936162;28;20212;-85
2022/01/30 11:07:52;;;;;;;8.25;2.45;;;;;;;7.69;55.94;98448.34;4951093;28;20099;-84
2022/01/30 11:10:23;;;;;;;5.65;1.50;;;;;;;7.93;56.03;98448.00;4964594;28;20282;-83
2022/01/30 11:13:07;;;;;;;5.32;1.75;;;;;;;8.09;56.10;98447.66;4935708;28;20176;-83
2022/01/30 11:15:36;;;;;;;7.05;1.55;;;;;;;8.16;56.26;98432.91;4948120;28;20374;-83
2022/01/30 11:18:05;;;;;;;7.45;1.95;;;;;;;8.11;55.30;98435.28;4968518;28;20200;-84
2022/01/30 11:20:33;;;;;;;4.47;1.35;;;;;;;8.10;54.53;98430.31;4947311;28;20698;-84
2022/01/30 11:23:03;;;;;;;4.50;1.50;;;;;;;8.33;55.02;98430.75;4933258;28;20213;-85
2022/01/30 11:25:33;;;;;;;5.18;1.30;;;;;;;8.51;54.37;98434.56;4931633;28;20185;-84
2022/01/30 11:28:04;;;;;;;8.57;1.92;;;;;;;8.08;54.76;98425.31;4950911;28;20192;-85
2022/01/30 11:30:34;;;;;;;7.03;2.55;;;;;;;7.81;55.39;98429.63;4948566;28;20605;-84
2022/01/30 11:33:00;;;;;;;7.85;2.00;;;;;;;8.05;56.84;98430.88;4933962;28;20204;-84
2022/01/30 11:35:26;;;;;;;6.28;1.90;;;;;;;8.22;56.45;98439.09;4950698;28;20631;-84
2022/01/30 11:37:52;;;;;;;7.88;1.38;;;;;;;8.39;55.32;98422.13;4951292;28;20837;-83
2022/01/30 11:40:19;;;;;;;5.75;1.33;;;;;;;8.62;56.10;98437.38;4935184;28;20265;-84
2022/01/30 11:42:49;;;;;;;8.32;2.40;;;;;;;8.88;55.43;98440.94;4918894;28;20611;-83
2022/01/30 11:45:27;;;;;;;7.03;1.80;;;;;;;8.79;54.89;98442.94;4951228;28;20196;-84
2022/01/30 11:48:04;;;;;;;7.93;1.48;;;;;;;8.66;53.40;98445.53;4958416;28;20646;-84
2022/01/30 11:50:31;;;;;;;7.78;1.52;;;;;;;8.84;54.02;98441.53;4928262;28;20220;-84
2022/01/30 11:52:58;;;;;;;6.68;2.05;;;;;;;8.86;53.81;98445.53;4927465;28;20583;-83
2022/01/30 11:55:56;;;;;;;6.28;2.22;;;;;;;8.76;54.73;98442.56;4933029;28;20161;-83
2022/01/30 11:58:47;;;;;;;6.43;1.40;;;;;;;8.68;54.23;98435.75;4966269;28;20093;-84
2022/01/30 12:01:25;;;;;;;4.28;1.88;;;;;;;8.54;54.58;98436.75;4943413;28;20199;-84
2022/01/30 12:04:10;;;;;;;7.32;1.98;;;;;;;8.52;54.87;98443.97;4950180;28;20198;-84
2022/01/30 12:06:38;;;;;;;6.30;1.42;;;;;;;8.76;55.32;98432.97;4940841;28;20212;-84
2022/01/30 12:09:27;;;;;;;7.05;1.92;;;;;;;8.50;54.52;98438.16;4934247;28;20240;-84
2022/01/30 12:11:55;;;;;;;7.05;2.45;;;;;;;8.64;53.45;98434.56;4911071;28;20278;-84
2022/01/30 12:14:20;;;;;;;5.80;1.70;;;;;;;8.48;53.93;98424.56;4935882;28;20162;-84
2022/01/30 12:16:52;;;;;;;6.45;2.50;;;;;;;8.48;53.50;98427.97;4949933;28;20750;-84
2022/01/30 12:19:44;;;;;;;4.88;1.65;;;;;;;8.09;54.09;98413.13;4935377;28;20591;-85
2022/01/30 12:22:15;;;;;;;7.00;1.92;;;;;;;8.08;52.95;98409.75;4947765;28;20197;-85
2022/01/30 12:24:41;;;;;;;6.63;1.30;;;;;;;8.32;53.08;98412.75;4949293;28;20557;-85
2022/01/30 12:27:07;;;;;;;8.35;1.60;;;;;;;8.32;52.51;98412.75;4935019;28;20774;-83
2022/01/30 12:29:36;;;;;;;7.25;1.63;;;;;;;8.10;52.33;98404.34;4949907;28;20302;-85
2022/01/30 12:32:29;;;;;;;6.80;2.35;;;;;;;8.03;53.05;98412.13;4930744;28;20285;-84
2022/01/30 12:34:55;;;;;;;3.75;1.75;;;;;;;8.01;51.72;98411.53;4950449;28;20256;-84
2022/01/30 12:37:33;;;;;;;5.93;2.38;;;;;;;7.97;52.63;98413.72;4933238;28;20380;-84
2022/01/30 12:40:09;;;;;;;5.68;1.38;;;;;;;7.88;52.64;98401.91;4929289;28;20182;-84